createdAt,value
2018-07-23T00:00:19.441Z,0
2018-07-23T00:01:28.310Z,0
2018-07-23T00:02:37.168Z,0
2018-07-23T00:03:46.030Z,0
2018-07-23T00:04:54.893Z,0
2018-07-23T00:06:03.756Z,0
2018-07-23T00:07:12.719Z,0
2018-07-23T00:08:21.585Z,0
2018-07-23T00:09:30.722Z,0
2018-07-23T00:10:39.586Z,0
2018-07-23T00:11:48.449Z,0
2018-07-23T00:12:57.310Z,0
2018-07-23T00:14:06.170Z,0
2018-07-23T00:15:15.034Z,0
2018-07-23T00:16:23.895Z,0
2018-07-23T00:17:32.766Z,0
2018-07-23T00:18:41.980Z,0
2018-07-23T00:19:51.119Z,0
2018-07-23T00:20:59.978Z,0
2018-07-23T00:22:08.840Z,0
2018-07-23T00:23:17.708Z,0
2018-07-23T00:24:26.847Z,0
2018-07-23T00:25:35.709Z,0
2018-07-23T00:26:44.574Z,0
2018-07-23T00:27:53.437Z,0
2018-07-23T00:29:02.582Z,0
2018-07-23T00:30:11.443Z,0
2018-07-23T00:31:20.581Z,0
2018-07-23T00:32:29.444Z,0
2018-07-23T00:33:38.593Z,0
2018-07-23T00:34:47.456Z,0
2018-07-23T00:35:56.942Z,0
2018-07-23T00:37:05.808Z,0
2018-07-23T00:38:14.666Z,0
2018-07-23T00:39:23.528Z,0
2018-07-23T00:40:32.388Z,0
2018-07-23T00:41:41.351Z,0
2018-07-23T00:42:50.212Z,0
2018-07-23T00:43:59.071Z,0
2018-07-23T00:45:07.935Z,0
2018-07-23T00:46:16.795Z,0
2018-07-23T00:47:26.009Z,0
2018-07-23T00:48:34.872Z,0
2018-07-23T00:49:43.735Z,0
2018-07-23T00:50:52.874Z,0
2018-07-23T00:52:01.733Z,0
2018-07-23T00:53:10.741Z,0
2018-07-23T00:54:19.606Z,0
2018-07-23T00:55:28.471Z,0
2018-07-23T00:56:37.329Z,0
2018-07-23T00:57:46.466Z,0
2018-07-23T00:58:55.328Z,0
2018-07-23T01:00:04.468Z,0
2018-07-23T01:01:13.327Z,0
2018-07-23T01:02:22.191Z,0
2018-07-23T01:03:31.053Z,0
2018-07-23T01:04:40.062Z,0
2018-07-23T01:05:48.926Z,0
2018-07-23T01:06:57.787Z,0
2018-07-23T01:08:06.648Z,0
2018-07-23T01:09:15.513Z,0
2018-07-23T01:10:24.727Z,0
2018-07-23T01:11:33.590Z,0
2018-07-23T01:12:42.451Z,0
2018-07-23T01:13:51.314Z,0
2018-07-23T01:15:00.457Z,0
2018-07-23T01:16:09.468Z,0
2018-07-23T01:17:18.330Z,0
2018-07-23T01:18:27.191Z,0
2018-07-23T01:19:36.055Z,0
2018-07-23T01:20:44.918Z,0
2018-07-23T01:21:54.128Z,0
2018-07-23T01:23:02.990Z,0
2018-07-23T01:24:11.848Z,0
2018-07-23T01:25:20.710Z,0
2018-07-23T01:26:29.670Z,0
2018-07-23T01:27:38.882Z,0
2018-07-23T01:28:47.745Z,0
2018-07-23T01:29:56.609Z,0
2018-07-23T01:31:05.472Z,0
2018-07-23T01:32:14.610Z,0
2018-07-23T01:33:23.472Z,0
2018-07-23T01:34:32.340Z,0
2018-07-23T01:35:41.203Z,0
2018-07-23T01:36:50.066Z,0
2018-07-23T01:37:59.213Z,0
2018-07-23T01:39:08.069Z,0
2018-07-23T01:40:16.932Z,0
2018-07-23T01:41:25.793Z,0
2018-07-23T01:42:34.659Z,0
2018-07-23T01:43:43.795Z,0
2018-07-23T01:44:52.658Z,0
2018-07-23T01:46:01.804Z,0
2018-07-23T01:47:10.668Z,0
2018-07-23T01:48:19.529Z,0
2018-07-23T01:49:28.390Z,0
2018-07-23T01:50:37.402Z,0
2018-07-23T01:51:46.264Z,0
2018-07-23T01:52:55.126Z,0
2018-07-23T01:54:03.985Z,0
2018-07-23T01:55:13.127Z,0
2018-07-23T01:56:22.094Z,0
2018-07-23T01:57:31.230Z,0
2018-07-23T01:58:40.091Z,0
2018-07-23T01:59:48.951Z,0
2018-07-23T02:00:57.813Z,0
2018-07-23T02:02:07.112Z,0
2018-07-23T02:03:15.974Z,0
2018-07-23T02:04:24.835Z,0
2018-07-23T02:05:33.972Z,0
2018-07-23T02:06:42.833Z,0
2018-07-23T02:07:51.845Z,0
2018-07-23T02:09:00.705Z,0
2018-07-23T02:10:09.567Z,0
2018-07-23T02:11:18.429Z,0
2018-07-23T02:12:27.288Z,0
2018-07-23T02:13:36.154Z,0
2018-07-23T02:14:45.012Z,0
2018-07-23T02:15:53.880Z,0
2018-07-23T02:17:03.291Z,0
2018-07-23T02:18:12.182Z,0
2018-07-23T02:19:21.017Z,0
2018-07-23T02:20:29.887Z,0
2018-07-23T02:21:38.744Z,0
2018-07-23T02:22:47.605Z,0
2018-07-23T02:23:56.467Z,0
2018-07-23T02:25:05.479Z,0
2018-07-23T02:26:14.615Z,0
2018-07-23T02:27:23.476Z,0
2018-07-23T02:28:32.614Z,0
2018-07-23T02:29:41.479Z,0
2018-07-23T02:30:50.619Z,0
2018-07-23T02:31:59.757Z,0
2018-07-23T02:33:08.619Z,0
2018-07-23T02:34:17.757Z,0
2018-07-23T02:35:26.628Z,0
2018-07-23T02:36:35.593Z,0
2018-07-23T02:37:44.738Z,0
2018-07-23T02:38:53.876Z,0
2018-07-23T02:40:03.020Z,0
2018-07-23T02:41:12.435Z,0
2018-07-23T02:42:21.645Z,0
2018-07-23T02:43:30.506Z,0
2018-07-23T02:44:39.366Z,0
2018-07-23T02:45:48.230Z,0
2018-07-23T02:46:57.095Z,0
2018-07-23T02:48:06.111Z,0
2018-07-23T02:49:15.250Z,0
2018-07-23T02:50:24.118Z,0
2018-07-23T02:51:33.533Z,0
2018-07-23T02:52:42.397Z,0
2018-07-23T02:53:51.557Z,0
2018-07-23T02:55:00.695Z,0
2018-07-23T02:56:09.840Z,0
2018-07-23T02:57:18.982Z,0
2018-07-23T02:58:27.846Z,0
2018-07-23T02:59:36.906Z,0
2018-07-23T03:00:45.720Z,0
2018-07-23T03:02:26.639Z,0
2018-07-23T03:03:36.336Z,0
2018-07-23T03:04:45.297Z,0
2018-07-23T03:05:54.160Z,0
2018-07-23T03:07:03.860Z,0
2018-07-23T03:08:12.726Z,0
2018-07-23T03:09:21.588Z,0
2018-07-23T03:10:30.499Z,0
2018-07-23T03:11:39.368Z,0
2018-07-23T03:12:48.779Z,0
2018-07-23T03:13:57.642Z,0
2018-07-23T03:15:06.805Z,0
2018-07-23T03:16:15.669Z,0
2018-07-23T03:17:25.362Z,0
2018-07-23T03:18:34.499Z,0
2018-07-23T03:19:43.639Z,0
2018-07-23T03:20:53.063Z,5
2018-07-23T03:22:01.978Z,5
2018-07-23T03:23:11.091Z,5
2018-07-23T03:24:20.235Z,5
2018-07-23T03:25:29.371Z,5
2018-07-23T03:26:38.788Z,5
2018-07-23T03:27:48.378Z,5
2018-07-23T03:28:57.519Z,5
2018-07-23T03:30:06.710Z,10
2018-07-23T03:31:16.140Z,10
2018-07-23T03:32:25.011Z,10
2018-07-23T03:33:33.872Z,10
2018-07-23T03:34:42.734Z,10
2018-07-23T03:35:51.879Z,10
2018-07-23T03:37:01.015Z,15
2018-07-23T03:38:09.876Z,15
2018-07-23T03:39:19.129Z,15
2018-07-23T03:40:28.265Z,15
2018-07-23T03:41:37.127Z,15
2018-07-23T03:42:45.986Z,20
2018-07-23T03:43:54.848Z,20
2018-07-23T03:45:03.984Z,20
2018-07-23T03:46:12.843Z,20
2018-07-23T03:47:21.707Z,20
2018-07-23T03:48:30.844Z,25
2018-07-23T03:49:39.983Z,25
2018-07-23T03:50:49.193Z,25
2018-07-23T03:51:58.059Z,30
2018-07-23T03:53:07.195Z,30
2018-07-23T03:54:16.053Z,30
2018-07-23T03:55:24.916Z,30
2018-07-23T03:56:33.777Z,35
2018-07-23T03:57:42.638Z,35
2018-07-23T03:58:51.501Z,35
2018-07-23T04:00:00.361Z,35
2018-07-23T04:01:09.223Z,40
2018-07-23T04:02:18.510Z,40
2018-07-23T04:03:27.378Z,40
2018-07-23T04:04:36.505Z,40
2018-07-23T04:05:45.370Z,45
2018-07-23T04:06:54.790Z,45
2018-07-23T04:08:03.798Z,45
2018-07-23T04:09:12.658Z,45
2018-07-23T04:10:21.519Z,50
2018-07-23T04:11:30.380Z,50
2018-07-23T04:12:39.257Z,50
2018-07-23T04:13:48.266Z,55
2018-07-23T04:14:57.129Z,55
2018-07-23T04:16:06.269Z,55
2018-07-23T04:17:15.133Z,60
2018-07-23T04:18:23.991Z,60
2018-07-23T04:19:33.205Z,60
2018-07-23T04:20:42.070Z,60
2018-07-23T04:21:50.965Z,65
2018-07-23T04:23:00.067Z,65
2018-07-23T04:24:08.927Z,65
2018-07-23T04:25:18.068Z,70
2018-07-23T04:26:26.929Z,70
2018-07-23T04:27:35.789Z,70
2018-07-23T04:28:44.648Z,75
2018-07-23T04:29:53.510Z,75
2018-07-23T04:31:02.374Z,75
2018-07-23T04:32:11.234Z,80
2018-07-23T04:33:20.095Z,75
2018-07-23T04:34:28.955Z,80
2018-07-23T04:35:37.815Z,80
2018-07-23T04:36:46.676Z,80
2018-07-23T04:37:55.911Z,85
2018-07-23T04:39:04.714Z,85
2018-07-23T04:40:13.576Z,90
2018-07-23T04:41:22.439Z,90
2018-07-23T04:42:31.302Z,90
2018-07-23T04:43:40.436Z,95
2018-07-23T04:44:49.297Z,95
2018-07-23T04:45:58.161Z,95
2018-07-23T04:47:07.301Z,95
2018-07-23T04:48:16.263Z,100
2018-07-23T04:49:25.238Z,105
2018-07-23T04:50:34.617Z,100
2018-07-23T04:51:44.045Z,100
2018-07-23T04:52:52.905Z,100
2018-07-23T04:54:02.043Z,100
2018-07-23T04:55:10.904Z,100
2018-07-23T04:56:19.766Z,100
2018-07-23T04:57:28.628Z,105
2018-07-23T04:58:37.491Z,105
2018-07-23T04:59:46.352Z,105
2018-07-23T05:00:55.492Z,105
2018-07-23T05:02:04.353Z,105
2018-07-23T05:03:13.216Z,110
2018-07-23T05:04:22.079Z,110
2018-07-23T05:05:30.941Z,110
2018-07-23T05:06:40.082Z,110
2018-07-23T05:07:48.943Z,115
2018-07-23T05:08:58.083Z,115
2018-07-23T05:10:06.945Z,115
2018-07-23T05:11:16.086Z,120
2018-07-23T05:12:24.950Z,120
2018-07-23T05:13:33.812Z,120
2018-07-23T05:14:42.670Z,130
2018-07-23T05:15:51.553Z,135
2018-07-23T05:17:01.026Z,145
2018-07-23T05:18:09.882Z,155
2018-07-23T05:19:18.746Z,165
2018-07-23T05:20:27.606Z,175
2018-07-23T05:21:36.470Z,170
2018-07-23T05:22:45.681Z,175
2018-07-23T05:23:55.223Z,175
2018-07-23T05:25:04.701Z,175
2018-07-23T05:26:13.591Z,155
2018-07-23T05:27:22.428Z,145
2018-07-23T05:28:31.291Z,140
2018-07-23T05:29:40.153Z,145
2018-07-23T05:30:49.016Z,135
2018-07-23T05:31:57.879Z,145
2018-07-23T05:33:07.018Z,150
2018-07-23T05:34:16.259Z,140
2018-07-23T05:35:25.121Z,135
2018-07-23T05:36:33.985Z,140
2018-07-23T05:37:42.845Z,140
2018-07-23T05:38:51.708Z,135
2018-07-23T05:40:01.001Z,145
2018-07-23T05:41:10.147Z,145
2018-07-23T05:42:19.008Z,150
2018-07-23T05:43:27.875Z,145
2018-07-23T05:44:36.889Z,150
2018-07-23T05:45:46.029Z,155
2018-07-23T05:46:54.892Z,160
2018-07-23T05:48:03.753Z,155
2018-07-23T05:49:12.613Z,155
2018-07-23T05:50:21.749Z,150
2018-07-23T05:51:30.613Z,150
2018-07-23T05:52:39.476Z,145
2018-07-23T05:53:48.340Z,160
2018-07-23T05:54:57.204Z,160
2018-07-23T05:56:06.343Z,150
2018-07-23T05:57:15.356Z,160
2018-07-23T05:58:24.220Z,155
2018-07-23T05:59:33.082Z,155
2018-07-23T06:00:42.502Z,160
2018-07-23T06:01:51.644Z,160
2018-07-23T06:03:00.789Z,150
2018-07-23T06:04:09.659Z,145
2018-07-23T06:05:18.529Z,150
2018-07-23T06:06:27.497Z,155
2018-07-23T06:07:36.254Z,160
2018-07-23T06:08:45.115Z,160
2018-07-23T06:09:53.982Z,155
2018-07-23T06:11:02.845Z,165
2018-07-23T06:12:11.712Z,160
2018-07-23T06:13:20.575Z,160
2018-07-23T06:14:29.785Z,160
2018-07-23T06:15:38.922Z,160
2018-07-23T06:16:47.783Z,160
2018-07-23T06:17:57.200Z,155
2018-07-23T06:19:06.063Z,155
2018-07-23T06:20:14.929Z,155
2018-07-23T06:21:23.792Z,155
2018-07-23T06:22:32.655Z,170
2018-07-23T06:23:41.799Z,170
2018-07-23T06:24:50.938Z,170
2018-07-23T06:25:59.954Z,170
2018-07-23T06:27:08.818Z,170
2018-07-23T06:28:17.680Z,165
2018-07-23T06:29:26.545Z,160
2018-07-23T06:30:35.790Z,160
2018-07-23T06:31:44.657Z,160
2018-07-23T06:32:53.795Z,150
2018-07-23T06:34:02.948Z,155
2018-07-23T06:35:12.092Z,160
2018-07-23T06:36:21.235Z,160
2018-07-23T06:37:30.557Z,165
2018-07-23T06:38:39.379Z,165
2018-07-23T06:39:48.242Z,165
2018-07-23T06:40:57.105Z,170
2018-07-23T06:42:05.967Z,170
2018-07-23T06:43:14.934Z,170
2018-07-23T06:44:23.696Z,170
2018-07-23T06:45:32.562Z,170
2018-07-23T06:46:41.734Z,165
2018-07-23T06:47:50.568Z,160
2018-07-23T06:48:59.807Z,165
2018-07-23T06:50:08.672Z,160
2018-07-23T06:51:17.535Z,160
2018-07-23T06:52:26.397Z,165
2018-07-23T06:53:35.261Z,165
2018-07-23T06:54:44.124Z,170
2018-07-23T06:55:52.986Z,170
2018-07-23T06:57:02.129Z,170
2018-07-23T06:58:10.987Z,170
2018-07-23T06:59:19.860Z,165
2018-07-23T07:00:29.022Z,170
2018-07-23T07:01:37.868Z,170
2018-07-23T07:02:46.736Z,170
2018-07-23T07:03:55.886Z,170
2018-07-23T07:05:04.744Z,170
2018-07-23T07:06:13.652Z,170
2018-07-23T07:07:22.473Z,165
2018-07-23T07:08:31.339Z,165
2018-07-23T07:09:40.480Z,165
2018-07-23T07:10:49.676Z,170
2018-07-23T07:11:58.488Z,170
2018-07-23T07:13:07.356Z,170
2018-07-23T07:14:16.218Z,170
2018-07-23T07:15:25.082Z,170
2018-07-23T07:16:33.944Z,170
2018-07-23T07:17:42.806Z,165
2018-07-23T07:18:51.668Z,165
2018-07-23T07:20:00.666Z,165
2018-07-23T07:21:09.403Z,165
2018-07-23T07:22:18.263Z,165
2018-07-23T07:23:27.280Z,170
2018-07-23T07:24:36.146Z,170
2018-07-23T07:25:45.288Z,170
2018-07-23T07:26:54.151Z,170
2018-07-23T07:28:03.295Z,170
2018-07-23T07:29:12.509Z,170
2018-07-23T07:30:21.371Z,175
2018-07-23T07:31:30.235Z,175
2018-07-23T07:32:39.101Z,175
2018-07-23T07:33:47.965Z,175
2018-07-23T07:34:56.827Z,175
2018-07-23T07:36:05.695Z,175
2018-07-23T07:37:14.566Z,175
2018-07-23T07:38:24.103Z,175
2018-07-23T07:39:32.910Z,175
2018-07-23T07:40:41.774Z,175
2018-07-23T07:41:50.640Z,175
2018-07-23T07:42:59.781Z,175
2018-07-23T07:44:09.002Z,175
2018-07-23T07:45:17.929Z,170
2018-07-23T07:46:26.836Z,175
2018-07-23T07:47:35.985Z,165
2018-07-23T07:48:44.848Z,170
2018-07-23T07:49:53.714Z,170
2018-07-23T07:51:02.869Z,170
2018-07-23T07:52:11.728Z,170
2018-07-23T07:53:20.593Z,170
2018-07-23T07:54:29.737Z,150
2018-07-23T07:55:38.879Z,165
2018-07-23T07:56:48.016Z,175
2018-07-23T07:57:56.878Z,175
2018-07-23T07:59:05.794Z,175
2018-07-23T08:00:14.618Z,180
2018-07-23T08:01:23.497Z,180
2018-07-23T08:02:32.376Z,185
2018-07-23T08:03:41.252Z,180
2018-07-23T08:04:50.125Z,185
2018-07-23T08:05:59.138Z,185
2018-07-23T08:07:08.337Z,185
2018-07-23T08:08:17.543Z,185
2018-07-23T08:09:26.405Z,185
2018-07-23T08:10:35.269Z,180
2018-07-23T08:11:44.285Z,180
2018-07-23T08:12:53.250Z,185
2018-07-23T08:14:02.116Z,185
2018-07-23T08:15:11.256Z,185
2018-07-23T08:16:20.148Z,185
2018-07-23T08:17:29.274Z,185
2018-07-23T08:18:38.263Z,185
2018-07-23T08:19:47.402Z,185
2018-07-23T08:20:56.552Z,185
2018-07-23T08:22:05.413Z,185
2018-07-23T08:23:14.276Z,185
2018-07-23T08:24:23.178Z,185
2018-07-23T08:25:32.064Z,185
2018-07-23T08:26:40.927Z,185
2018-07-23T08:27:50.221Z,185
2018-07-23T08:28:59.701Z,185
2018-07-23T08:30:08.566Z,185
2018-07-23T08:31:17.434Z,185
2018-07-23T08:32:26.888Z,185
2018-07-23T08:33:35.694Z,185
2018-07-23T08:34:44.578Z,185
2018-07-23T08:35:54.005Z,185
2018-07-23T08:37:03.189Z,185
2018-07-23T08:38:12.019Z,185
2018-07-23T08:39:20.905Z,190
2018-07-23T08:40:29.937Z,190
2018-07-23T08:41:38.828Z,195
2018-07-23T08:42:47.691Z,200
2018-07-23T08:43:56.561Z,205
2018-07-23T08:45:06.016Z,205
2018-07-23T08:46:15.600Z,205
2018-07-23T08:47:24.476Z,200
2018-07-23T08:48:33.398Z,200
2018-07-23T08:49:42.553Z,195
2018-07-23T08:50:51.414Z,195
2018-07-23T08:52:00.328Z,195
2018-07-23T08:53:09.202Z,195
2018-07-23T08:54:18.074Z,195
2018-07-23T08:55:27.007Z,195
2018-07-23T08:56:35.875Z,195
2018-07-23T08:57:44.747Z,195
2018-07-23T08:58:53.611Z,195
2018-07-23T09:00:02.497Z,195
2018-07-23T09:01:11.362Z,195
2018-07-23T09:02:20.269Z,195
2018-07-23T09:03:29.244Z,195
2018-07-23T09:04:38.146Z,200
2018-07-23T09:05:47.353Z,200
2018-07-23T09:06:56.220Z,200
2018-07-23T09:08:05.087Z,200
2018-07-23T09:09:13.951Z,205
2018-07-23T09:10:22.817Z,215
2018-07-23T09:11:31.684Z,200
2018-07-23T09:12:40.826Z,185
2018-07-23T09:13:49.965Z,205
2018-07-23T09:14:58.932Z,210
2018-07-23T09:16:08.072Z,210
2018-07-23T09:17:16.983Z,210
2018-07-23T09:18:25.803Z,210
2018-07-23T09:19:35.002Z,210
2018-07-23T09:20:43.813Z,215
2018-07-23T09:21:52.957Z,215
2018-07-23T09:23:01.823Z,215
2018-07-23T09:24:10.696Z,215
2018-07-23T09:25:19.560Z,215
2018-07-23T09:26:28.779Z,215
2018-07-23T09:27:37.643Z,215
2018-07-23T09:28:46.794Z,215
2018-07-23T09:29:55.658Z,215
2018-07-23T09:31:04.864Z,215
2018-07-23T09:32:13.824Z,215
2018-07-23T09:33:22.970Z,215
2018-07-23T09:34:31.838Z,215
2018-07-23T09:35:40.990Z,215
2018-07-23T09:36:49.859Z,215
2018-07-23T09:37:58.725Z,215
2018-07-23T09:39:07.593Z,215
2018-07-23T09:40:16.468Z,215
2018-07-23T09:41:25.613Z,215
2018-07-23T09:42:34.480Z,220
2018-07-23T09:43:43.625Z,220
2018-07-23T09:44:52.766Z,220
2018-07-23T09:46:02.035Z,220
2018-07-23T09:47:11.891Z,220
2018-07-23T09:48:21.109Z,215
2018-07-23T09:49:30.356Z,220
2018-07-23T09:50:39.628Z,220
2018-07-23T09:51:48.834Z,220
2018-07-23T09:52:58.141Z,220
2018-07-23T09:54:07.336Z,220
2018-07-23T09:55:16.351Z,220
2018-07-23T09:56:25.217Z,220
2018-07-23T09:57:34.082Z,225
2018-07-23T09:58:42.981Z,225
2018-07-23T09:59:51.850Z,225
2018-07-23T10:01:01.066Z,230
2018-07-23T10:02:09.934Z,225
2018-07-23T10:03:19.354Z,220
2018-07-23T10:04:28.564Z,220
2018-07-23T10:05:37.431Z,220
2018-07-23T10:06:46.880Z,220
2018-07-23T10:07:55.747Z,220
2018-07-23T10:09:04.619Z,220
2018-07-23T10:10:13.486Z,220
2018-07-23T10:11:22.373Z,215
2018-07-23T10:12:31.253Z,210
2018-07-23T10:13:40.120Z,210
2018-07-23T10:14:49.259Z,210
2018-07-23T10:15:58.130Z,210
2018-07-23T10:17:06.997Z,210
2018-07-23T10:18:16.080Z,210
2018-07-23T10:19:25.223Z,210
2018-07-23T10:20:34.090Z,210
2018-07-23T10:21:43.228Z,210
2018-07-23T10:22:52.092Z,210
2018-07-23T10:24:00.974Z,210
2018-07-23T10:25:09.843Z,210
2018-07-23T10:26:18.708Z,210
2018-07-23T10:27:27.589Z,210
2018-07-23T10:28:36.456Z,210
2018-07-23T10:29:45.671Z,210
2018-07-23T10:30:54.536Z,210
2018-07-23T10:32:03.403Z,210
2018-07-23T10:33:12.270Z,210
2018-07-23T10:34:21.139Z,210
2018-07-23T10:35:30.650Z,210
2018-07-23T10:36:39.518Z,215
2018-07-23T10:37:48.384Z,215
2018-07-23T10:38:57.251Z,215
2018-07-23T10:40:06.398Z,215
2018-07-23T10:41:15.619Z,215
2018-07-23T10:42:24.433Z,215
2018-07-23T10:43:33.304Z,215
2018-07-23T10:44:42.451Z,220
2018-07-23T10:45:51.319Z,220
2018-07-23T10:47:00.185Z,220
2018-07-23T10:48:09.330Z,220
2018-07-23T10:49:18.474Z,225
2018-07-23T10:50:27.341Z,225
2018-07-23T10:51:36.205Z,225
2018-07-23T10:52:45.225Z,225
2018-07-23T10:53:54.369Z,225
2018-07-23T10:55:03.237Z,230
2018-07-23T10:56:12.101Z,230
2018-07-23T10:57:20.988Z,225
2018-07-23T10:58:30.408Z,225
2018-07-23T10:59:39.273Z,225
2018-07-23T11:00:48.152Z,225
2018-07-23T11:01:57.184Z,225
2018-07-23T11:03:06.971Z,225
2018-07-23T11:04:16.397Z,225
2018-07-23T11:05:25.560Z,225
2018-07-23T11:06:34.416Z,225
2018-07-23T11:07:43.328Z,225
2018-07-23T11:08:52.292Z,225
2018-07-23T11:10:01.162Z,225
2018-07-23T11:11:10.029Z,230
2018-07-23T11:12:18.928Z,230
2018-07-23T11:13:27.819Z,230
2018-07-23T11:14:36.969Z,230
2018-07-23T11:15:46.213Z,230
2018-07-23T11:16:55.089Z,230
2018-07-23T11:18:03.957Z,235
2018-07-23T11:19:12.841Z,235
2018-07-23T11:20:22.272Z,240
2018-07-23T11:21:31.137Z,240
2018-07-23T11:22:40.070Z,240
2018-07-23T11:23:48.935Z,245
2018-07-23T11:24:57.813Z,245
2018-07-23T11:26:06.965Z,245
2018-07-23T11:27:15.981Z,245
2018-07-23T11:28:24.945Z,265
2018-07-23T11:29:33.868Z,270
2018-07-23T11:30:43.297Z,275
2018-07-23T11:31:52.438Z,275
2018-07-23T11:33:01.304Z,280
2018-07-23T11:34:10.170Z,280
2018-07-23T11:35:19.049Z,280
2018-07-23T11:36:27.960Z,280
2018-07-23T11:37:36.787Z,285
2018-07-23T11:38:46.020Z,285
2018-07-23T11:39:54.884Z,285
2018-07-23T11:41:03.746Z,290
2018-07-23T11:42:12.613Z,290
2018-07-23T11:43:21.481Z,295
2018-07-23T11:44:30.908Z,295
2018-07-23T11:45:39.779Z,305
2018-07-23T11:46:48.648Z,300
2018-07-23T11:47:57.514Z,300
2018-07-23T11:49:06.384Z,300
2018-07-23T11:50:15.251Z,300
2018-07-23T11:51:24.672Z,305
2018-07-23T11:52:33.540Z,305
2018-07-23T11:53:42.453Z,310
2018-07-23T11:54:51.281Z,320
2018-07-23T11:56:00.300Z,325
2018-07-23T11:57:09.168Z,330
2018-07-23T11:58:18.038Z,345
2018-07-23T11:59:27.192Z,365
2018-07-23T12:00:36.346Z,975
2018-07-23T12:01:45.521Z,2640
2018-07-23T12:02:54.359Z,3010
2018-07-23T12:04:03.224Z,2865
2018-07-23T12:05:12.105Z,2870
2018-07-23T12:06:21.024Z,3135
2018-07-23T12:07:29.964Z,3120
2018-07-23T12:08:38.834Z,3120
2018-07-23T12:09:47.704Z,3215
2018-07-23T12:10:56.576Z,3305
2018-07-23T12:12:05.448Z,3245
2018-07-23T12:13:14.471Z,3235
2018-07-23T12:14:23.345Z,3485
2018-07-23T12:15:32.218Z,3485
2018-07-23T12:16:41.368Z,3225
2018-07-23T12:17:50.243Z,3285
2018-07-23T12:18:59.214Z,3210
2018-07-23T12:20:08.090Z,3460
2018-07-23T12:21:17.245Z,3525
2018-07-23T12:22:26.122Z,3415
2018-07-23T12:23:34.997Z,3570
2018-07-23T12:24:44.230Z,3685
2018-07-23T12:25:53.385Z,3360
2018-07-23T12:27:02.265Z,3420
2018-07-23T12:28:11.408Z,3435
2018-07-23T12:29:20.281Z,3480
2018-07-23T12:30:29.160Z,3640
2018-07-23T12:31:38.037Z,3470
2018-07-23T12:32:46.915Z,3445
2018-07-23T12:33:55.790Z,3540
2018-07-23T12:35:04.665Z,3695
2018-07-23T12:36:13.819Z,3765
2018-07-23T12:37:22.725Z,3645
2018-07-23T12:38:31.672Z,3585
2018-07-23T12:39:40.924Z,3720
2018-07-23T12:40:49.732Z,3670
2018-07-23T12:41:58.937Z,3400
2018-07-23T12:43:08.163Z,3390
2018-07-23T12:44:17.484Z,3565
2018-07-23T12:45:26.686Z,3675
2018-07-23T12:46:35.813Z,3205
2018-07-23T12:47:45.403Z,3335
2018-07-23T12:48:54.625Z,3530
2018-07-23T12:50:03.506Z,3520
2018-07-23T12:51:12.383Z,3610
2018-07-23T12:52:21.809Z,3235
2018-07-23T12:53:31.115Z,3540
2018-07-23T12:54:40.000Z,3520
2018-07-23T12:55:49.157Z,3570
2018-07-23T12:56:58.320Z,3465
2018-07-23T12:58:07.201Z,3670
2018-07-23T12:59:16.467Z,3575
2018-07-23T13:00:25.351Z,3460
2018-07-23T13:01:34.241Z,3555
2018-07-23T13:02:43.130Z,3500
2018-07-23T13:03:52.295Z,3570
2018-07-23T13:05:01.190Z,3705
2018-07-23T13:06:10.371Z,3590
2018-07-23T13:07:19.269Z,3440
2018-07-23T13:08:28.150Z,3310
2018-07-23T13:10:11.080Z,3795
2018-07-23T13:11:20.966Z,3485
2018-07-23T13:12:29.881Z,3385
2018-07-23T13:13:38.761Z,3490
2018-07-23T13:14:47.691Z,3470
2018-07-23T13:15:56.572Z,3530
2018-07-23T13:17:05.458Z,3200
2018-07-23T13:18:14.339Z,3560
2018-07-23T13:19:23.645Z,3600
2018-07-23T13:20:32.525Z,3590
2018-07-23T13:21:41.407Z,3715
2018-07-23T13:22:50.579Z,3675
2018-07-23T13:23:59.738Z,3840
2018-07-23T13:25:08.621Z,3360
2018-07-23T13:26:17.525Z,2745
2018-07-23T13:27:26.406Z,3285
2018-07-23T13:28:35.566Z,3605
2018-07-23T13:29:44.447Z,3660
2018-07-23T13:30:53.327Z,3425
2018-07-23T13:32:02.210Z,3590
2018-07-23T13:33:11.093Z,3635
2018-07-23T13:34:19.977Z,3555
2018-07-23T13:35:29.141Z,3575
2018-07-23T13:36:38.026Z,3725
2018-07-23T13:37:47.191Z,3765
2018-07-23T13:38:56.074Z,3670
2018-07-23T13:40:04.955Z,3915
2018-07-23T13:41:13.839Z,3725
2018-07-23T13:42:23.000Z,3565
2018-07-23T13:43:31.884Z,3835
2018-07-23T13:44:41.032Z,3850
2018-07-23T13:45:50.015Z,3935
2018-07-23T13:46:58.897Z,3985
2018-07-23T13:48:07.797Z,3730
2018-07-23T13:49:17.216Z,3530
2018-07-23T13:50:26.098Z,3740
2018-07-23T13:51:35.091Z,3640
2018-07-23T13:52:43.976Z,3745
2018-07-23T13:53:53.132Z,3700
2018-07-23T13:55:02.289Z,3750
2018-07-23T13:56:11.449Z,3950
2018-07-23T13:57:20.332Z,3785
2018-07-23T13:58:29.215Z,3720
2018-07-23T13:59:38.098Z,3815
2018-07-23T14:00:46.979Z,3590
2018-07-23T14:01:56.138Z,3570
2018-07-23T14:03:05.169Z,3610
2018-07-23T14:04:14.052Z,3700
2018-07-23T14:05:22.939Z,3785
2018-07-23T14:06:31.835Z,3705
2018-07-23T14:07:40.704Z,3555
2018-07-23T14:08:49.944Z,3595
2018-07-23T14:09:59.096Z,3620
2018-07-23T14:11:08.267Z,3815
2018-07-23T14:12:17.149Z,3650
2018-07-23T14:13:26.031Z,3565
2018-07-23T14:14:35.275Z,3745
2018-07-23T14:15:44.435Z,3755
2018-07-23T14:16:53.327Z,3785
2018-07-23T14:18:02.219Z,3890
2018-07-23T14:19:11.099Z,3670
2018-07-23T14:20:19.981Z,3875
2018-07-23T14:21:28.864Z,3825
2018-07-23T14:22:37.751Z,3725
2018-07-23T14:23:46.916Z,3780
2018-07-23T14:24:55.803Z,3650
2018-07-23T14:26:04.687Z,3490
2018-07-23T14:27:13.572Z,3370
2018-07-23T14:28:22.757Z,3635
2018-07-23T14:29:31.919Z,3725
2018-07-23T14:30:41.098Z,3660
2018-07-23T14:31:50.255Z,3605
2018-07-23T14:32:59.142Z,3605
2018-07-23T14:34:08.028Z,3810
2018-07-23T14:35:17.190Z,3715
2018-07-23T14:36:26.072Z,3765
2018-07-23T14:37:34.955Z,3815
2018-07-23T14:38:44.482Z,3795
2018-07-23T14:39:53.368Z,3565
2018-07-23T14:41:02.536Z,3730
2018-07-23T14:42:11.422Z,3715
2018-07-23T14:43:20.307Z,3880
2018-07-23T14:44:29.191Z,3885
2018-07-23T14:45:38.074Z,3715
2018-07-23T14:46:46.977Z,3680
2018-07-23T14:47:55.861Z,3550
2018-07-23T14:49:04.744Z,3755
2018-07-23T14:50:13.628Z,3395
2018-07-23T14:51:22.866Z,3520
2018-07-23T14:52:31.748Z,3555
2018-07-23T14:53:40.632Z,3545
2018-07-23T14:54:50.073Z,3500
2018-07-23T14:55:58.969Z,3575
2018-07-23T14:57:08.128Z,3480
2018-07-23T14:58:17.297Z,3360
2018-07-23T14:59:26.183Z,3400
2018-07-23T15:00:35.068Z,3350
2018-07-23T15:01:44.704Z,3410
2018-07-23T15:02:53.591Z,3080
2018-07-23T15:04:02.760Z,3105
2018-07-23T15:05:11.947Z,3290
2018-07-23T15:06:20.840Z,3500
2018-07-23T15:07:30.079Z,3445
2018-07-23T15:08:39.242Z,3545
2018-07-23T15:09:48.127Z,3365
2018-07-23T15:10:57.289Z,3470
2018-07-23T15:12:06.173Z,3350
2018-07-23T15:13:15.059Z,3435
2018-07-23T15:14:24.221Z,3375
2018-07-23T15:15:33.105Z,3255
2018-07-23T15:16:42.376Z,3070
2018-07-23T15:17:51.261Z,3490
2018-07-23T15:19:00.144Z,3385
2018-07-23T15:20:09.028Z,3075
2018-07-23T15:21:18.188Z,3235
2018-07-23T15:22:27.071Z,3245
2018-07-23T15:23:35.958Z,3100
2018-07-23T15:24:45.122Z,3085
2018-07-23T15:25:54.001Z,3120
2018-07-23T15:27:02.888Z,3040
2018-07-23T15:28:11.875Z,3030
2018-07-23T15:29:21.037Z,3015
2018-07-23T15:30:29.937Z,3050
2018-07-23T15:31:38.829Z,3095
2018-07-23T15:32:47.985Z,2990
2018-07-23T15:33:56.880Z,3035
2018-07-23T15:35:05.758Z,3035
2018-07-23T15:36:14.641Z,2925
2018-07-23T15:37:23.807Z,2900
2018-07-23T15:38:33.020Z,2880
2018-07-23T15:39:42.158Z,2825
2018-07-23T15:40:51.325Z,2800
2018-07-23T15:42:00.209Z,2850
2018-07-23T15:43:09.093Z,2770
2018-07-23T15:44:18.557Z,2830
2018-07-23T15:45:28.768Z,2835
2018-07-23T15:46:37.485Z,2760
2018-07-23T15:47:46.368Z,2730
2018-07-23T15:48:55.251Z,2670
2018-07-23T15:50:04.136Z,2580
2018-07-23T15:51:13.296Z,2660
2018-07-23T15:52:22.180Z,2570
2018-07-23T15:53:31.064Z,2580
2018-07-23T15:54:40.048Z,2570
2018-07-23T15:55:48.937Z,2510
2018-07-23T15:56:57.817Z,2460
2018-07-23T15:58:06.843Z,2505
2018-07-23T15:59:15.763Z,2425